Time;durP1;ratioP1;P1;durP2;ratioP2;P2;SDS_P1;SDS_P2;PMS_P1;PMS_P2;Temp;Humidity;BMP_temperature;BMP_pressure;BME280_temperature;BME280_humidity;BME280_pressure;Samples;Min_cycle;Max_cycle;Signal;HPM_P1;HPM_P2
2022/12/06 00:01:31;;;;;;;6.28;4.45;;;9.80;47.30;;;;;;4993454;28;20179;-51
2022/12/06 00:03:58;;;;;;;6.78;4.43;;;9.80;47.40;;;;;;4993149;28;20796;-50
2022/12/06 00:06:27;;;;;;;5.60;5.03;;;9.90;47.40;;;;;;4993234;28;20207;-50
2022/12/06 00:08:54;;;;;;;5.30;4.80;;;9.80;47.40;;;;;;4993295;28;20171;-51
2022/12/06 00:11:22;;;;;;;4.15;3.75;;;9.90;47.50;;;;;;4993262;28;20174;-51
2022/12/06 00:13:52;;;;;;;4.70;4.30;;;9.80;47.30;;;;;;4992903;28;20207;-51
2022/12/06 00:16:18;;;;;;;6.63;4.93;;;9.80;47.50;;;;;;4993285;28;20647;-50
2022/12/06 00:18:45;;;;;;;6.83;5.07;;;9.80;47.50;;;;;;4993123;28;20273;-51
2022/12/06 00:21:22;;;;;;;6.93;5.18;;;9.80;47.50;;;;;;4993139;28;20184;-51
2022/12/06 00:23:53;;;;;;;7.00;4.82;;;9.80;47.50;;;;;;4992822;28;20194;-51
2022/12/06 00:26:20;;;;;;;6.50;4.15;;;9.70;47.50;;;;;;4993134;28;20232;-50
2022/12/06 00:28:46;;;;;;;5.60;4.28;;;9.70;47.60;;;;;;4993025;28;20676;-51
2022/12/06 00:31:17;;;;;;;6.57;5.03;;;9.80;47.60;;;;;;4992951;28;20185;-51
2022/12/06 00:33:43;;;;;;;7.35;4.75;;;9.80;47.50;;;;;;4992584;28;20200;-50
2022/12/06 00:36:29;;;;;;;6.35;4.57;;;9.80;47.60;;;;;;4993006;28;20179;-50
2022/12/06 00:38:58;;;;;;;5.57;4.78;;;9.80;47.50;;;;;;4992224;28;20168;-51
2022/12/06 00:41:24;;;;;;;5.10;3.92;;;9.80;47.60;;;;;;4992727;28;20170;-50
2022/12/06 00:43:51;;;;;;;6.07;4.37;;;9.80;47.60;;;;;;4992465;28;20679;-51
2022/12/06 00:46:20;;;;;;;7.15;5.50;;;9.80;47.60;;;;;;4992680;28;20451;-51
2022/12/06 00:48:47;;;;;;;4.40;3.80;;;9.80;47.60;;;;;;4992749;28;20677;-51
2022/12/06 00:51:14;;;;;;;6.95;4.50;;;9.80;48.30;;;;;;4992712;28;20213;-51
2022/12/06 00:53:41;;;;;;;5.47;4.03;;;9.80;47.70;;;;;;4992374;28;20191;-51
2022/12/06 00:56:07;;;;;;;5.57;4.45;;;9.80;47.80;;;;;;4992673;28;20265;-50
2022/12/06 00:58:33;;;;;;;7.25;4.03;;;9.80;47.70;;;;;;4992600;28;20259;-50
2022/12/06 01:01:26;;;;;;;4.13;3.10;;;9.80;47.60;;;;;;4992623;28;20229;-51
2022/12/06 01:03:55;;;;;;;7.18;4.82;;;9.80;47.60;;;;;;4992068;28;20445;-51
2022/12/06 01:06:26;;;;;;;5.30;4.65;;;9.80;47.60;;;;;;4992490;28;20308;-51
2022/12/06 01:08:53;;;;;;;7.63;5.03;;;9.70;47.60;;;;;;4992519;28;20175;-50
2022/12/06 01:11:21;;;;;;;4.88;3.53;;;9.80;47.70;;;;;;4992528;28;20174;-51
2022/12/06 01:13:47;;;;;;;8.25;4.70;;;9.80;47.70;;;;;;4992086;28;20226;-51
2022/12/06 01:16:15;;;;;;;6.00;4.95;;;9.80;47.60;;;;;;4992485;28;20178;-50
2022/12/06 01:18:42;;;;;;;6.57;4.55;;;9.70;47.60;;;;;;4992464;28;20309;-51
2022/12/06 01:21:14;;;;;;;6.07;4.18;;;9.80;47.60;;;;;;4992397;28;20173;-51
2022/12/06 01:23:40;;;;;;;5.03;3.80;;;9.80;47.60;;;;;;4992108;28;20195;-51
2022/12/06 01:26:07;;;;;;;5.57;4.50;;;9.70;47.60;;;;;;4992292;28;20615;-51
2022/12/06 01:28:33;;;;;;;7.40;3.85;;;9.80;47.60;;;;;;4992351;28;20688;-51
2022/12/06 01:30:59;;;;;;;5.72;4.32;;;9.80;47.60;;;;;;4992437;28;20172;-51
2022/12/06 01:33:25;;;;;;;5.97;4.93;;;9.80;47.50;;;;;;4992093;28;20205;-51
2022/12/06 01:35:51;;;;;;;5.22;3.97;;;9.80;47.50;;;;;;4992280;28;20174;-51
2022/12/06 01:38:16;;;;;;;4.40;4.00;;;9.80;47.40;;;;;;4992265;28;20172;-50
2022/12/06 01:40:45;;;;;;;6.20;4.20;;;9.70;47.50;;;;;;4992269;28;20197;-50
2022/12/06 01:43:31;;;;;;;6.28;4.47;;;9.70;47.50;;;;;;4991989;28;20266;-51
2022/12/06 01:46:01;;;;;;;5.25;4.07;;;9.70;47.40;;;;;;4992156;28;20294;-51
2022/12/06 01:48:27;;;;;;;5.63;4.00;;;9.70;47.60;;;;;;4992158;28;20247;-50
2022/12/06 01:50:55;;;;;;;8.30;4.57;;;9.70;47.50;;;;;;4993435;28;20261;-51
2022/12/06 01:53:22;;;;;;;6.15;4.15;;;9.80;47.50;;;;;;4995565;28;20429;-50
2022/12/06 01:55:48;;;;;;;5.55;4.30;;;9.70;47.50;;;;;;4995812;28;20186;-50
2022/12/06 01:58:20;;;;;;;5.77;3.97;;;9.70;47.30;;;;;;4995800;28;20170;-51
2022/12/06 02:00:46;;;;;;;5.75;3.88;;;9.70;47.50;;;;;;4995656;28;20416;-50
2022/12/06 02:03:17;;;;;;;4.20;3.80;;;9.70;47.50;;;;;;4995374;28;20198;-51
2022/12/06 02:05:44;;;;;;;7.55;4.20;;;9.70;47.50;;;;;;4995618;28;20199;-51
2022/12/06 02:08:11;;;;;;;6.10;4.65;;;9.70;47.50;;;;;;4995633;28;20730;-51
2022/12/06 02:10:37;;;;;;;6.32;4.22;;;9.70;47.50;;;;;;4995530;28;20187;-51
2022/12/06 02:13:05;;;;;;;6.50;4.63;;;9.70;47.50;;;;;;4995097;28;20179;-51
2022/12/06 02:16:09;;;;;;;4.05;2.85;;;9.70;47.50;;;;;;4995453;28;20217;-50
2022/12/06 02:18:56;;;;;;;5.28;4.30;;;9.70;47.40;;;;;;4993491;28;20193;-51
2022/12/06 02:21:46;;;;;;;6.70;4.72;;;9.60;47.50;;;;;;4995352;28;20229;-51
2022/12/06 02:24:45;;;;;;;5.78;4.50;;;9.60;47.50;;;;;;4995141;28;20190;-51
2022/12/06 02:27:32;;;;;;;5.80;4.70;;;9.60;47.50;;;;;;4995313;28;20167;-50
2022/12/06 02:30:10;;;;;;;8.85;4.78;;;9.60;47.50;;;;;;4995203;28;20805;-51
2022/12/06 02:32:52;;;;;;;5.68;4.50;;;9.60;47.60;;;;;;4994997;28;20668;-51
2022/12/06 02:35:33;;;;;;;18.77;9.65;;;9.50;47.50;;;;;;4995117;28;20156;-51
2022/12/06 02:38:04;;;;;;;10.70;7.30;;;9.50;47.60;;;;;;4995105;28;20191;-51
2022/12/06 02:40:40;;;;;;;7.20;5.65;;;9.50;47.60;;;;;;4995069;28;20175;-51
2022/12/06 02:43:17;;;;;;;8.80;6.55;;;9.50;47.60;;;;;;4994732;28;20636;-50
2022/12/06 02:45:49;;;;;;;10.20;6.22;;;9.50;47.60;;;;;;4994885;28;20200;-50
2022/12/06 02:48:16;;;;;;;7.07;6.10;;;9.50;47.60;;;;;;4994906;28;20529;-51
2022/12/06 02:50:47;;;;;;;8.52;5.32;;;9.50;47.60;;;;;;4994713;28;20166;-51
2022/12/06 02:53:16;;;;;;;8.43;5.90;;;9.40;47.40;;;;;;4994472;28;20567;-50
2022/12/06 02:55:44;;;;;;;8.10;5.78;;;9.40;47.60;;;;;;4994723;28;20167;-51
2022/12/06 02:58:10;;;;;;;10.15;5.07;;;9.40;47.60;;;;;;4994712;28;20171;-51
2022/12/06 03:00:41;;;;;;;7.13;5.50;;;9.40;47.60;;;;;;4994674;28;20652;-51
2022/12/06 03:03:18;;;;;;;8.05;5.18;;;9.50;47.70;;;;;;4993397;28;20198;-50
2022/12/06 03:06:01;;;;;;;5.75;4.80;;;9.50;47.60;;;;;;4994464;28;20197;-51
2022/12/06 03:08:41;;;;;;;9.07;5.57;;;9.50;47.50;;;;;;4994457;28;20174;-51
2022/12/06 03:11:08;;;;;;;11.88;5.50;;;9.50;47.60;;;;;;4994474;28;20262;-51
2022/12/06 03:13:58;;;;;;;8.80;6.47;;;9.50;47.60;;;;;;4993992;28;20678;-50
2022/12/06 03:16:28;;;;;;;6.93;5.35;;;9.50;47.60;;;;;;4994379;28;20172;-51
2022/12/06 03:19:27;;;;;;;7.28;5.75;;;9.50;47.60;;;;;;4994255;28;20249;-51
2022/12/06 03:22:05;;;;;;;7.50;5.07;;;9.40;47.30;;;;;;4992839;28;20285;-50
2022/12/06 03:24:34;;;;;;;13.05;6.95;;;9.40;47.60;;;;;;4994132;28;20545;-51
2022/12/06 03:27:04;;;;;;;8.30;6.55;;;9.40;47.60;;;;;;4994020;28;20221;-51
2022/12/06 03:29:33;;;;;;;7.45;5.68;;;9.40;47.60;;;;;;4994020;28;20179;-51
2022/12/06 03:32:03;;;;;;;7.85;5.93;;;9.40;47.60;;;;;;4993825;28;20179;-50
2022/12/06 03:34:37;;;;;;;9.93;7.20;;;9.40;47.70;;;;;;4993885;28;20209;-50
2022/12/06 03:37:06;;;;;;;10.45;7.10;;;9.40;47.60;;;;;;4994024;28;20177;-50
2022/12/06 03:39:57;;;;;;;9.93;7.22;;;9.40;47.60;;;;;;4993844;28;20168;-50
2022/12/06 03:42:23;;;;;;;9.23;6.57;;;9.40;47.50;;;;;;4993689;28;20178;-51
2022/12/06 03:44:49;;;;;;;10.52;7.78;;;9.40;47.60;;;;;;4993640;28;20199;-50
2022/12/06 03:47:50;;;;;;;10.52;5.88;;;9.40;47.60;;;;;;4994020;28;20175;-51
2022/12/06 03:50:22;;;;;;;10.20;7.35;;;9.40;47.50;;;;;;4993583;28;20181;-51
2022/12/06 03:52:52;;;;;;;8.15;6.80;;;9.40;47.60;;;;;;4993446;28;20651;-51
2022/12/06 03:55:18;;;;;;;8.20;6.53;;;9.40;47.60;;;;;;4993621;28;20566;-50
2022/12/06 03:57:44;;;;;;;10.30;6.43;;;9.40;47.60;;;;;;4993487;28;20177;-50
2022/12/06 04:00:13;;;;;;;8.60;6.57;;;9.50;47.50;;;;;;4993629;28;20170;-50
2022/12/06 04:02:38;;;;;;;8.48;6.47;;;9.50;47.50;;;;;;4993179;28;20745;-50
2022/12/06 04:05:04;;;;;;;7.70;6.93;;;9.50;47.50;;;;;;4993315;28;20209;-50
2022/12/06 04:07:30;;;;;;;9.68;7.32;;;9.50;47.50;;;;;;4993403;28;20168;-51
2022/12/06 04:10:01;;;;;;;8.97;6.67;;;9.50;47.50;;;;;;4993356;28;20185;-51
2022/12/06 04:15:13;;;;;;;11.45;5.47;;;9.50;47.40;;;;;;4993250;28;20268;-50
2022/12/06 04:20:26;;;;;;;8.65;6.07;;;9.50;47.40;;;;;;4993261;28;20193;-50
2022/12/06 04:23:05;;;;;;;9.05;5.60;;;9.40;47.40;;;;;;4992830;28;20189;-51
2022/12/06 04:25:35;;;;;;;8.48;5.78;;;9.40;47.20;;;;;;4992986;28;20195;-50
2022/12/06 04:38:59;;;;;;;9.45;5.70;;;9.20;47.50;;;;;;4992965;28;20165;-51
2022/12/06 04:44:09;;;;;;;7.10;5.43;;;9.20;47.60;;;;;;4992557;28;20197;-50
2022/12/06 04:46:35;;;;;;;9.40;5.82;;;9.20;47.70;;;;;;4992652;28;20284;-50
2022/12/06 04:49:01;;;;;;;10.23;6.90;;;9.10;47.70;;;;;;4992776;28;20242;-50
2022/12/06 04:51:27;;;;;;;7.10;6.03;;;9.20;47.70;;;;;;4992704;28;20171;-51
2022/12/06 04:53:52;;;;;;;8.20;6.70;;;9.20;47.70;;;;;;4992320;28;20995;-50
2022/12/06 04:56:18;;;;;;;9.63;5.63;;;9.20;47.70;;;;;;4992618;28;20175;-50
2022/12/06 04:58:44;;;;;;;6.60;5.40;;;9.20;47.70;;;;;;4992587;28;20248;-51
2022/12/06 05:01:10;;;;;;;10.43;5.15;;;10.20;48.00;;;;;;4992567;28;20410;-51
2022/12/06 05:03:36;;;;;;;10.03;6.43;;;9.30;47.70;;;;;;4992323;28;20205;-50
2022/12/06 05:06:02;;;;;;;9.48;7.63;;;9.30;47.60;;;;;;4992475;28;20449;-51
2022/12/06 05:08:29;;;;;;;7.68;5.50;;;9.30;47.70;;;;;;4992362;28;20174;-50
2022/12/06 05:10:55;;;;;;;9.30;6.03;;;9.30;47.60;;;;;;4992562;28;20174;-51
2022/12/06 05:13:21;;;;;;;8.95;5.38;;;9.30;47.60;;;;;;4992047;28;20545;-51
2022/12/06 05:15:55;;;;;;;7.10;6.10;;;9.30;47.50;;;;;;4992609;28;20167;-50
2022/12/06 05:18:21;;;;;;;8.77;6.18;;;9.30;47.50;;;;;;4992465;28;20265;-51
2022/12/06 05:20:47;;;;;;;11.05;6.13;;;9.30;47.40;;;;;;4992446;28;20205;-51
2022/12/06 05:23:13;;;;;;;8.63;6.60;;;9.30;47.40;;;;;;4992140;28;20669;-51
2022/12/06 05:25:39;;;;;;;9.38;6.95;;;9.30;47.30;;;;;;4993316;28;20191;-51
2022/12/06 05:28:06;;;;;;;9.32;6.45;;;9.30;47.30;;;;;;4996325;28;20254;-51
2022/12/06 05:30:32;;;;;;;8.52;5.70;;;9.30;47.20;;;;;;4996205;28;20197;-51
2022/12/06 05:32:57;;;;;;;7.80;6.30;;;9.30;47.30;;;;;;4994717;28;20213;-51
2022/12/06 05:35:23;;;;;;;6.77;6.07;;;9.30;47.40;;;;;;4996015;28;20435;-51
2022/12/06 05:37:49;;;;;;;6.73;5.13;;;9.30;47.30;;;;;;4996201;28;20253;-51
2022/12/06 05:40:15;;;;;;;6.80;5.17;;;9.30;47.30;;;;;;4996165;28;20174;-51
2022/12/06 05:42:41;;;;;;;7.63;5.90;;;9.30;47.30;;;;;;4995848;28;20199;-51
2022/12/06 05:45:08;;;;;;;7.90;6.13;;;9.30;47.30;;;;;;4995799;28;20205;-51
2022/12/06 05:47:34;;;;;;;9.65;6.07;;;9.30;47.10;;;;;;4995923;28;20177;-51
2022/12/06 05:50:00;;;;;;;8.47;5.63;;;9.30;47.10;;;;;;4995871;28;20273;-51
2022/12/06 05:52:25;;;;;;;8.13;5.70;;;9.20;47.10;;;;;;4995644;28;20407;-51
2022/12/06 05:54:51;;;;;;;8.00;5.47;;;9.30;47.00;;;;;;4995765;28;20184;-51
2022/12/06 05:57:17;;;;;;;9.80;6.73;;;9.20;46.80;;;;;;4995840;28;20244;-51
2022/12/06 05:59:42;;;;;;;8.83;6.17;;;9.20;47.00;;;;;;4995708;28;20688;-51
2022/12/06 06:02:08;;;;;;;9.77;6.80;;;9.20;47.00;;;;;;4995477;28;20179;-50
2022/12/06 06:04:34;;;;;;;9.80;7.20;;;9.10;47.00;;;;;;4995507;28;20253;-51
2022/12/06 06:07:00;;;;;;;7.87;6.60;;;9.20;47.10;;;;;;4995571;28;20197;-51
2022/12/06 06:09:26;;;;;;;8.53;6.20;;;9.10;47.00;;;;;;4995558;28;20172;-51
2022/12/06 06:11:53;;;;;;;8.65;6.47;;;9.20;47.10;;;;;;4995383;28;20749;-51
2022/12/06 06:14:19;;;;;;;9.85;7.93;;;9.20;47.00;;;;;;4995021;28;20268;-50
2022/12/06 06:16:44;;;;;;;11.17;8.37;;;9.20;46.90;;;;;;4995357;28;20180;-51
2022/12/06 06:19:11;;;;;;;9.50;6.63;;;9.20;47.00;;;;;;4995307;28;20452;-51
2022/12/06 06:21:36;;;;;;;9.05;7.18;;;9.20;47.00;;;;;;4995231;28;20207;-50
2022/12/06 06:24:02;;;;;;;10.40;7.37;;;9.20;46.70;;;;;;4995122;28;20218;-51
2022/12/06 06:26:28;;;;;;;10.20;6.67;;;9.20;46.80;;;;;;4995210;28;20661;-51
2022/12/06 06:28:54;;;;;;;8.97;6.80;;;9.30;46.90;;;;;;4995151;28;20406;-51
2022/12/06 06:31:20;;;;;;;10.75;6.28;;;9.30;47.00;;;;;;4995142;28;20406;-51
2022/12/06 06:33:46;;;;;;;8.60;6.73;;;9.30;47.60;;;;;;4994770;28;20702;-51
2022/12/06 06:36:11;;;;;;;10.47;7.83;;;9.30;46.90;;;;;;4994916;28;20171;-51
2022/12/06 06:38:37;;;;;;;10.93;6.63;;;9.30;46.80;;;;;;4993861;28;20429;-51
2022/12/06 06:41:05;;;;;;;9.57;7.00;;;9.30;46.60;;;;;;4995192;28;20175;-51
2022/12/06 06:43:31;;;;;;;9.18;7.05;;;9.30;46.70;;;;;;4994599;28;20425;-51
2022/12/06 06:46:02;;;;;;;7.72;6.55;;;9.30;46.80;;;;;;4994829;28;20205;-49
2022/12/06 06:48:31;;;;;;;8.52;6.38;;;9.30;46.90;;;;;;4994759;28;20163;-49
2022/12/06 06:51:05;;;;;;;7.68;6.10;;;9.30;46.90;;;;;;4994789;28;20171;-49
2022/12/06 06:53:31;;;;;;;11.10;6.60;;;9.40;46.90;;;;;;4994394;28;20721;-49
2022/12/06 06:55:57;;;;;;;9.52;6.97;;;9.40;46.80;;;;;;4994681;28;20229;-49
2022/12/06 06:58:24;;;;;;;8.60;6.37;;;9.40;46.70;;;;;;4994577;28;20194;-49
2022/12/06 07:00:57;;;;;;;9.70;7.22;;;9.40;46.70;;;;;;4994475;28;20421;-49
2022/12/06 07:03:24;;;;;;;10.45;7.30;;;9.40;46.60;;;;;;4994163;28;20599;-48
2022/12/06 07:05:55;;;;;;;7.65;5.47;;;9.40;46.60;;;;;;4994374;28;20188;-50
2022/12/06 07:08:21;;;;;;;9.57;7.85;;;9.40;46.70;;;;;;4994465;28;20231;-51
2022/12/06 07:10:47;;;;;;;8.90;6.65;;;9.30;46.40;;;;;;4994419;28;20209;-50
2022/12/06 07:13:21;;;;;;;7.07;6.18;;;9.30;46.40;;;;;;4993932;28;20195;-51
2022/12/06 07:15:48;;;;;;;15.98;8.30;;;9.20;46.50;;;;;;4994230;28;20167;-51
2022/12/06 07:18:15;;;;;;;10.45;8.07;;;9.20;46.70;;;;;;4994244;28;20182;-51
2022/12/06 07:20:42;;;;;;;11.90;7.85;;;9.20;46.80;;;;;;4994250;28;20174;-51
2022/12/06 07:23:08;;;;;;;10.15;7.30;;;9.10;46.50;;;;;;4993928;28;20216;-50
2022/12/06 07:25:34;;;;;;;11.03;7.70;;;9.10;46.60;;;;;;4994072;28;20223;-49
2022/12/06 07:28:00;;;;;;;10.23;7.57;;;9.10;46.70;;;;;;4994024;28;20597;-50
2022/12/06 07:30:26;;;;;;;10.63;7.23;;;9.10;46.60;;;;;;4994111;28;20851;-51
2022/12/06 07:32:52;;;;;;;12.80;8.45;;;9.00;46.60;;;;;;4993714;28;20428;-50
2022/12/06 07:35:19;;;;;;;12.70;7.95;;;9.00;46.80;;;;;;4993868;28;20185;-50
2022/12/06 07:37:45;;;;;;;11.63;8.27;;;9.00;46.70;;;;;;4993902;28;20177;-51
2022/12/06 07:40:13;;;;;;;10.47;7.80;;;9.00;46.70;;;;;;4993901;28;20179;-53
2022/12/06 07:45:23;;;;;;;11.50;7.80;;;9.00;47.00;;;;;;4993952;28;20577;-53
2022/12/06 07:47:48;;;;;;;8.67;6.53;;;9.00;46.90;;;;;;4993585;28;20555;-52
2022/12/06 07:50:18;;;;;;;12.30;7.03;;;9.00;46.90;;;;;;4993468;28;20887;-52
2022/12/06 07:52:45;;;;;;;11.48;7.28;;;8.90;46.90;;;;;;4993531;28;20539;-52
2022/12/06 07:55:11;;;;;;;10.68;6.95;;;8.90;47.00;;;;;;4993446;28;20240;-52
2022/12/06 07:57:37;;;;;;;16.27;8.30;;;9.00;46.90;;;;;;4993302;28;20175;-53
2022/12/06 08:00:07;;;;;;;11.55;7.78;;;8.90;47.10;;;;;;4993426;28;20230;-53
2022/12/06 08:02:32;;;;;;;12.95;8.25;;;8.90;47.10;;;;;;4993226;28;20171;-53
2022/12/06 08:04:58;;;;;;;11.50;9.13;;;8.90;47.10;;;;;;4993274;28;20209;-52
2022/12/06 08:07:25;;;;;;;13.13;7.70;;;9.00;47.20;;;;;;4993288;28;20422;-52
2022/12/06 08:09:54;;;;;;;12.55;8.57;;;8.90;47.00;;;;;;4993306;28;20540;-52
2022/12/06 08:12:20;;;;;;;11.18;8.90;;;8.90;47.00;;;;;;4993052;28;20169;-52
2022/12/06 08:14:47;;;;;;;14.48;8.65;;;8.90;47.10;;;;;;4993033;28;20222;-51
2022/12/06 08:17:13;;;;;;;11.77;8.50;;;8.90;47.30;;;;;;4993168;28;20171;-52
2022/12/06 08:19:39;;;;;;;12.25;8.25;;;8.90;47.20;;;;;;4993153;28;20179;-53
2022/12/06 08:22:05;;;;;;;10.57;7.73;;;8.90;47.10;;;;;;4992941;28;20176;-53
2022/12/06 08:24:30;;;;;;;11.57;8.40;;;8.90;47.20;;;;;;4993044;28;20230;-52
2022/12/06 08:26:58;;;;;;;12.93;7.70;;;8.80;46.90;;;;;;4992901;28;20577;-51
2022/12/06 08:29:24;;;;;;;13.50;7.65;;;8.80;47.00;;;;;;4992914;28;20411;-52
2022/12/06 08:31:50;;;;;;;12.20;8.05;;;8.90;47.20;;;;;;4992851;28;20225;-52
2022/12/06 08:34:16;;;;;;;9.90;6.93;;;8.90;47.30;;;;;;4992686;28;20183;-51
2022/12/06 08:36:43;;;;;;;10.75;7.95;;;9.00;47.20;;;;;;4992818;28;20450;-54
2022/12/06 08:39:11;;;;;;;14.23;9.40;;;9.00;47.10;;;;;;4992879;28;20177;-52
2022/12/06 08:41:56;;;;;;;10.73;7.68;;;9.10;46.90;;;;;;4992694;28;20417;-51
2022/12/06 08:44:23;;;;;;;11.70;7.82;;;9.10;46.90;;;;;;4992796;28;20694;-52
2022/12/06 08:46:49;;;;;;;13.75;8.18;;;9.10;46.90;;;;;;4992768;28;20293;-52
2022/12/06 08:49:16;;;;;;;11.03;7.47;;;9.10;46.90;;;;;;4992656;28;20246;-51
2022/12/06 09:01:47;;;;;;;12.00;7.65;;;9.10;46.60;;;;;;4991630;28;20607;-53
2022/12/06 09:04:13;;;;;;;14.07;8.43;;;9.10;46.70;;;;;;4992095;28;20216;-52
2022/12/06 09:06:41;;;;;;;11.23;8.00;;;9.10;46.70;;;;;;4992504;28;20310;-52
2022/12/06 09:09:09;;;;;;;12.13;8.40;;;9.20;46.70;;;;;;4992555;28;20429;-52
2022/12/06 09:11:35;;;;;;;12.18;8.18;;;9.20;46.40;;;;;;4992375;28;20206;-52
2022/12/06 09:14:00;;;;;;;11.45;8.98;;;9.20;46.50;;;;;;4992052;28;20218;-53
2022/12/06 09:16:26;;;;;;;12.37;9.50;;;9.20;46.40;;;;;;4992473;28;20592;-53
2022/12/06 09:18:52;;;;;;;11.10;8.80;;;9.20;46.30;;;;;;4992485;28;20265;-53
2022/12/06 09:21:20;;;;;;;13.80;8.60;;;9.30;46.30;;;;;;4991908;28;20174;-49
2022/12/06 09:23:46;;;;;;;11.13;8.55;;;9.30;46.30;;;;;;4992099;28;20202;-50
2022/12/06 09:26:13;;;;;;;11.87;8.23;;;9.30;47.00;;;;;;4992280;28;20197;-50
2022/12/06 09:28:41;;;;;;;10.75;7.53;;;9.30;46.40;;;;;;4992241;28;20409;-49
2022/12/06 09:31:08;;;;;;;9.60;8.20;;;9.30;46.30;;;;;;4992447;28;20194;-49
2022/12/06 09:33:35;;;;;;;11.52;8.70;;;9.40;46.20;;;;;;4991970;28;20191;-50
2022/12/06 09:36:09;;;;;;;10.93;9.38;;;9.40;46.20;;;;;;4992218;28;20659;-49
2022/12/06 09:38:38;;;;;;;11.77;9.43;;;9.40;46.30;;;;;;4992194;28;20248;-50
2022/12/06 09:41:37;;;;;;;10.68;8.63;;;9.40;46.30;;;;;;4991153;28;20178;-49
2022/12/06 09:44:03;;;;;;;13.63;9.05;;;9.40;46.20;;;;;;4991360;28;20520;-50
2022/12/06 09:46:43;;;;;;;10.60;8.50;;;9.30;46.10;;;;;;4991177;28;20686;-50
2022/12/06 09:49:22;;;;;;;13.63;9.00;;;9.40;46.10;;;;;;4991141;28;20177;-49
2022/12/06 09:52:30;;;;;;;11.80;8.27;;;9.30;46.10;;;;;;4991240;28;20261;-50
2022/12/06 09:55:12;;;;;;;11.43;8.25;;;9.40;46.00;;;;;;4991084;28;20190;-49
2022/12/06 09:58:19;;;;;;;13.68;8.40;;;9.30;46.10;;;;;;4991130;28;20174;-49
2022/12/06 10:01:03;;;;;;;11.45;8.75;;;9.30;46.10;;;;;;4990648;28;20183;-49
2022/12/06 10:03:50;;;;;;;13.57;9.02;;;9.30;46.20;;;;;;4991838;28;20190;-49
2022/12/06 10:06:20;;;;;;;8.98;7.50;;;9.30;46.30;;;;;;4992005;28;20696;-49
2022/12/06 10:09:09;;;;;;;9.82;7.53;;;9.30;46.40;;;;;;4991904;28;20179;-49
2022/12/06 10:11:41;;;;;;;9.85;8.18;;;9.40;46.30;;;;;;4992730;28;20171;-49
2022/12/06 10:14:15;;;;;;;9.85;7.93;;;9.30;46.20;;;;;;4995097;28;20209;-48
2022/12/06 10:17:22;;;;;;;10.63;8.15;;;9.40;46.20;;;;;;4995394;28;20182;-50
2022/12/06 10:20:12;;;;;;;9.95;8.00;;;9.30;45.80;;;;;;4994626;28;20232;-49
2022/12/06 10:23:09;;;;;;;11.65;8.60;;;9.20;45.90;;;;;;4994965;28;20257;-48
2022/12/06 10:25:51;;;;;;;14.80;7.82;;;9.20;46.10;;;;;;4995357;28;20186;-49
2022/12/06 10:28:38;;;;;;;9.55;7.10;;;9.20;46.30;;;;;;4995271;28;20762;-49
2022/12/06 10:31:31;;;;;;;11.65;7.80;;;9.20;46.40;;;;;;4995138;28;20242;-49
2022/12/06 10:34:18;;;;;;;10.95;7.60;;;9.20;46.30;;;;;;4994811;28;20267;-51
2022/12/06 10:37:08;;;;;;;10.90;7.95;;;9.20;46.60;;;;;;4995007;28;20179;-49
2022/12/06 10:39:47;;;;;;;12.98;7.53;;;9.10;46.20;;;;;;4995049;28;20174;-49
2022/12/06 10:42:25;;;;;;;9.35;7.25;;;9.00;46.50;;;;;;4994710;28;20170;-49
2022/12/06 10:45:01;;;;;;;15.63;8.75;;;8.90;46.80;;;;;;4994865;28;20205;-49
2022/12/06 10:47:40;;;;;;;10.43;7.57;;;9.00;46.90;;;;;;4994809;28;20183;-49
2022/12/06 10:50:13;;;;;;;9.57;7.90;;;9.00;46.90;;;;;;4994832;28;20182;-49
2022/12/06 10:52:50;;;;;;;9.00;7.07;;;9.00;46.90;;;;;;4994604;28;20169;-49
2022/12/06 10:55:46;;;;;;;8.95;6.80;;;9.00;46.70;;;;;;4994348;28;20207;-49
2022/12/06 10:58:42;;;;;;;11.52;8.05;;;9.00;46.70;;;;;;4994085;28;20631;-49
2022/12/06 11:01:28;;;;;;;11.65;8.18;;;9.00;46.80;;;;;;4994631;28;20181;-50
2022/12/06 11:04:18;;;;;;;11.13;8.48;;;9.00;47.00;;;;;;4994370;28;20186;-50
2022/12/06 11:07:11;;;;;;;10.93;8.93;;;9.00;47.00;;;;;;4994440;28;20506;-50
2022/12/06 11:09:44;;;;;;;8.30;6.45;;;9.00;46.90;;;;;;4994510;28;20724;-49
2022/12/06 11:12:22;;;;;;;10.40;7.78;;;9.00;46.70;;;;;;4994197;28;20254;-50
2022/12/06 11:14:53;;;;;;;9.68;7.07;;;9.00;46.90;;;;;;4994101;28;20198;-50
2022/12/06 11:17:24;;;;;;;11.55;8.55;;;9.00;46.90;;;;;;4994317;28;20168;-52
2022/12/06 11:20:23;;;;;;;9.52;7.85;;;9.00;46.90;;;;;;4994234;28;20230;-52
2022/12/06 11:23:05;;;;;;;12.00;8.75;;;9.00;46.80;;;;;;4992480;28;20201;-50
2022/12/06 11:25:59;;;;;;;9.35;6.60;;;8.90;46.30;;;;;;4994064;28;20242;-51
2022/12/06 11:28:42;;;;;;;10.18;7.53;;;8.90;46.50;;;;;;4994100;28;20170;-50
2022/12/06 11:31:25;;;;;;;9.48;7.03;;;8.80;46.20;;;;;;4994085;28;20174;-50
2022/12/06 11:33:51;;;;;;;11.52;7.60;;;8.80;46.40;;;;;;4993711;28;20276;-51
2022/12/06 11:36:17;;;;;;;12.55;8.45;;;8.80;46.70;;;;;;4993914;28;20193;-51
2022/12/06 11:38:44;;;;;;;10.25;7.65;;;8.80;45.90;;;;;;4993828;28;20167;-50
2022/12/06 11:41:32;;;;;;;11.98;8.57;;;8.70;46.20;;;;;;4993880;28;20241;-50
2022/12/06 11:43:58;;;;;;;10.98;7.97;;;8.70;46.20;;;;;;4993336;28;20211;-50
2022/12/06 11:46:25;;;;;;;10.90;8.07;;;8.70;46.00;;;;;;4993634;28;20209;-50
2022/12/06 11:48:51;;;;;;;9.40;7.47;;;8.50;46.10;;;;;;4993737;28;20493;-49
2022/12/06 11:51:22;;;;;;;9.40;7.20;;;8.60;46.50;;;;;;4993669;28;20253;-50
2022/12/06 11:53:58;;;;;;;9.60;7.47;;;8.60;46.10;;;;;;4993353;28;20182;-50
2022/12/06 11:56:30;;;;;;;11.10;7.28;;;8.60;46.60;;;;;;4993485;28;20233;-50
2022/12/06 11:59:19;;;;;;;10.73;8.55;;;8.60;46.40;;;;;;4993593;28;20170;-50
2022/12/06 12:01:47;;;;;;;10.70;7.70;;;8.70;46.40;;;;;;4993431;28;20181;-51
2022/12/06 12:04:25;;;;;;;10.05;8.05;;;8.70;46.40;;;;;;4993223;28;20683;-50
2022/12/06 12:07:21;;;;;;;10.43;8.43;;;8.80;46.00;;;;;;4993203;28;20287;-50
2022/12/06 12:09:53;;;;;;;11.35;8.80;;;8.80;46.00;;;;;;4993143;28;20269;-50
2022/12/06 12:15:32;;;;;;;11.98;9.25;;;8.80;46.10;;;;;;4993542;28;20195;-51
2022/12/06 12:18:00;;;;;;;16.10;10.38;;;8.80;45.70;;;;;;4993289;28;20174;-49
2022/12/06 12:20:37;;;;;;;13.18;8.85;;;8.80;45.90;;;;;;4993127;28;20231;-51
2022/12/06 12:23:06;;;;;;;13.77;9.50;;;8.80;45.80;;;;;;4992883;28;20174;-49
2022/12/06 12:25:34;;;;;;;11.88;8.27;;;8.90;46.00;;;;;;4992924;28;20208;-51
2022/12/06 12:28:23;;;;;;;11.82;9.95;;;8.90;45.90;;;;;;4992983;28;20197;-50
2022/12/06 12:30:57;;;;;;;13.05;8.85;;;8.90;45.80;;;;;;4993164;28;20214;-50
2022/12/06 12:33:25;;;;;;;11.88;9.20;;;8.90;45.60;;;;;;4992746;28;20194;-50
2022/12/06 12:36:09;;;;;;;13.95;9.45;;;8.90;45.30;;;;;;4992737;28;20179;-51
2022/12/06 12:38:55;;;;;;;13.18;7.78;;;8.80;45.40;;;;;;4992883;28;20215;-50
2022/12/06 12:41:39;;;;;;;12.93;8.63;;;8.80;45.20;;;;;;4992879;28;20179;-51
2022/12/06 12:44:38;;;;;;;15.10;8.95;;;8.60;45.20;;;;;;4992584;28;20195;-51
2022/12/06 12:47:18;;;;;;;12.63;8.45;;;8.50;45.70;;;;;;4991250;28;20214;-51
2022/12/06 12:50:17;;;;;;;13.40;9.50;;;8.50;45.90;;;;;;4992711;28;20206;-51
2022/12/06 12:52:42;;;;;;;10.50;7.07;;;8.50;45.90;;;;;;4992447;28;20243;-51
2022/12/06 12:55:11;;;;;;;9.43;6.63;;;8.50;46.00;;;;;;4992583;28;20231;-51
2022/12/06 12:57:37;;;;;;;11.77;7.80;;;8.60;45.80;;;;;;4992519;28;20425;-51
2022/12/06 13:00:04;;;;;;;9.93;7.10;;;8.60;45.50;;;;;;4992624;28;20181;-51
2022/12/06 13:02:33;;;;;;;9.35;7.75;;;8.50;45.80;;;;;;4992379;28;20417;-53
2022/12/06 13:05:33;;;;;;;8.55;6.82;;;8.50;46.00;;;;;;4992476;28;20265;-51
2022/12/06 13:08:10;;;;;;;8.85;7.00;;;8.50;45.60;;;;;;4992393;28;20238;-50
2022/12/06 13:10:37;;;;;;;9.15;7.63;;;8.50;45.70;;;;;;4992515;28;20166;-51
2022/12/06 13:13:23;;;;;;;12.07;8.93;;;8.40;45.50;;;;;;4992105;28;20171;-51
2022/12/06 13:15:52;;;;;;;12.52;7.05;;;8.40;45.30;;;;;;4992438;28;20161;-51
2022/12/06 13:18:47;;;;;;;10.27;7.22;;;8.30;45.60;;;;;;4992509;28;20641;-51
2022/12/06 13:21:44;;;;;;;11.25;6.90;;;8.20;45.50;;;;;;4992427;28;20238;-50
2022/12/06 13:24:09;;;;;;;10.15;7.82;;;8.20;46.20;;;;;;4991968;28;20253;-51
2022/12/06 13:26:43;;;;;;;12.00;8.97;;;8.20;46.10;;;;;;4992376;28;20621;-51
2022/12/06 13:29:30;;;;;;;10.20;7.63;;;8.30;46.20;;;;;;4992320;28;20172;-51
2022/12/06 13:31:59;;;;;;;12.75;8.43;;;8.30;46.10;;;;;;4992204;28;20155;-51
2022/12/06 13:34:36;;;;;;;14.63;9.95;;;8.20;46.10;;;;;;4992002;28;20197;-51
2022/12/06 13:37:02;;;;;;;10.30;8.65;;;8.20;45.90;;;;;;4992305;28;20205;-51
2022/12/06 13:39:30;;;;;;;13.98;8.60;;;8.20;46.40;;;;;;4992295;28;20176;-51
2022/12/06 13:42:17;;;;;;;11.75;8.73;;;8.10;46.30;;;;;;4992122;28;20176;-51
2022/12/06 13:44:58;;;;;;;14.77;9.95;;;8.20;46.30;;;;;;4992069;28;20202;-51
2022/12/06 13:47:27;;;;;;;11.90;8.43;;;8.20;46.40;;;;;;4994268;28;20219;-51
2022/12/06 13:50:31;;;;;;;11.05;7.55;;;8.10;46.30;;;;;;4995846;28;20598;-51
2022/12/06 13:53:01;;;;;;;10.80;7.40;;;8.10;46.00;;;;;;4993233;28;20255;-51
2022/12/06 13:55:27;;;;;;;11.20;7.20;;;8.00;45.90;;;;;;4993520;28;20180;-51